METAR Data
IDs: Format: Raw Decoded Include TAF

Data at: 0838 UTC 10 Dec 2022

METAR for:VTUU (Ubon Ratchathan Intl, 34, TH)
Text:VTUU 100800Z 36007KT 330V050 9999 FEW045 32/19 Q1008 NOSIG
Temperature: 32.0°C ( 90°F)
Dewpoint: 19.0°C ( 66°F) [RH = 46%]
Pressure (altimeter):29.76 inches Hg (1008.0 mb)
Winds:from the N (360 degrees) at 8 MPH (7 knots; 3.6 m/s)
Visibility:6 or more sm (10+ km)
Ceiling:at least 12,000 feet AGL
Clouds: few clouds at 4500 feet AGL